Time;durP1;ratioP1;P1;durP2;ratioP2;P2;SDS_P1;SDS_P2;PMS_P1;PMS_P2;Temp;Humidity;BMP_temperature;BMP_pressure;BME280_temperature;BME280_humidity;BME280_pressure;Samples;Min_cycle;Max_cycle;Signal;HPM_P1;HPM_P2
2022/12/22 03:25:56;;;;;;;32.42;13.02;;;0.80;99.90;;;;;;6485608;22;20021;-65
2022/12/22 03:28:30;;;;;;;27.02;12.15;;;0.60;99.90;;;;;;6485221;22;20075;-65
2022/12/22 03:31:06;;;;;;;25.88;11.73;;;0.50;99.90;;;;;;6458262;22;19999;-65
2022/12/22 03:33:39;;;;;;;32.28;12.70;;;0.30;99.90;;;;;;6482458;22;20021;-64
2022/12/22 03:36:10;;;;;;;25.63;11.27;;;0.30;99.90;;;;;;6482770;22;20183;-65
2022/12/22 03:38:42;;;;;;;30.02;12.40;;;0.20;99.90;;;;;;6483410;22;19999;-65
2022/12/22 03:46:29;;;;;;;24.30;11.43;;;0.20;99.90;;;;;;6456857;22;20330;-66
2022/12/22 03:46:54;;;;;;;25.83;11.68;;;0.20;99.90;;;;;;6460339;22;20181;-63
2022/12/22 03:49:25;;;;;;;35.75;13.40;;;0.10;99.90;;;;;;6457805;22;20003;-63
2022/12/22 03:51:59;;;;;;;31.35;12.45;;;0.10;99.90;;;;;;6457037;22;20007;-64
2022/12/22 03:54:30;;;;;;;32.83;13.00;;;0.10;99.90;;;;;;6481769;22;20014;-65
2022/12/22 03:57:02;;;;;;;31.65;12.02;;;0.10;99.90;;;;;;6455004;22;20051;-64
2022/12/22 03:59:34;;;;;;;31.25;14.57;;;0.10;99.90;;;;;;6457756;22;20200;-65
2022/12/22 04:02:09;;;;;;;32.30;14.02;;;0.10;99.90;;;;;;6455847;22;20005;-65
2022/12/22 04:04:41;;;;;;;39.42;14.02;;;0.20;99.90;;;;;;6475476;22;20067;-64
2022/12/22 04:07:12;;;;;;;29.60;14.02;;;0.20;99.90;;;;;;6481278;22;20000;-62
2022/12/22 04:12:53;;;;;;;37.03;13.13;;;0.20;99.90;;;;;;6482273;22;20015;-62
2022/12/22 04:15:27;;;;;;;31.08;12.65;;;0.20;99.90;;;;;;6482531;22;20586;-65
2022/12/22 04:18:03;;;;;;;34.40;14.55;;;0.30;99.90;;;;;;6481277;22;20010;-65
2022/12/22 04:20:36;;;;;;;27.67;11.95;;;0.40;99.90;;;;;;6507202;22;19983;-63
2022/12/22 04:23:10;;;;;;;35.33;13.33;;;0.40;99.90;;;;;;6481918;22;20371;-65
2022/12/22 04:25:41;;;;;;;35.97;13.80;;;0.40;99.90;;;;;;6482530;22;20137;-63
2022/12/22 04:28:15;;;;;;;34.40;14.90;;;0.50;99.90;;;;;;6483792;22;20006;-63
2022/12/22 04:30:51;;;;;;;33.30;13.45;;;0.50;99.90;;;;;;6456417;22;20297;-64
2022/12/22 04:33:22;;;;;;;36.33;13.90;;;0.50;99.90;;;;;;6483905;22;20010;-61
2022/12/22 04:35:56;;;;;;;37.35;13.55;;;0.60;99.90;;;;;;6456475;22;20351;-64
2022/12/22 04:38:32;;;;;;;27.67;13.30;;;0.60;99.90;;;;;;6484915;22;19999;-64
2022/12/22 04:41:10;;;;;;;28.90;14.52;;;0.60;99.90;;;;;;6510033;22;20068;-64
2022/12/22 04:43:41;;;;;;;32.90;13.70;;;0.60;99.90;;;;;;6483936;22;20074;-62
2022/12/22 04:46:18;;;;;;;34.28;14.07;;;0.60;99.90;;;;;;6486242;22;20058;-63
2022/12/22 04:48:51;;;;;;;29.83;13.73;;;0.60;99.90;;;;;;6510603;22;20218;-63
2022/12/22 04:51:25;;;;;;;28.23;14.93;;;0.60;99.90;;;;;;6459333;22;19995;-62
2022/12/22 04:53:58;;;;;;;26.05;13.27;;;0.60;99.90;;;;;;6457559;22;20006;-62
2022/12/22 04:56:34;;;;;;;28.92;13.63;;;0.70;99.90;;;;;;6482782;22;20054;-64
2022/12/22 04:59:08;;;;;;;28.50;12.98;;;0.70;99.90;;;;;;6483223;22;20445;-62
2022/12/22 05:01:48;;;;;;;30.63;13.02;;;0.80;99.90;;;;;;6456895;22;20014;-64
2022/12/22 05:04:29;;;;;;;24.85;11.77;;;0.80;99.90;;;;;;6472749;22;20071;-63
2022/12/22 05:07:06;;;;;;;28.52;12.93;;;0.80;99.90;;;;;;6458737;22;20067;-64
2022/12/22 05:09:44;;;;;;;21.05;10.30;;;0.80;99.90;;;;;;6509845;22;20343;-64
2022/12/22 05:15:10;;;;;;;27.02;12.15;;;0.60;99.90;;;;;;6485739;22;20005;-64
2022/12/22 05:17:44;;;;;;;28.20;10.90;;;0.60;99.90;;;;;;6484256;22;20002;-64
2022/12/22 05:20:21;;;;;;;30.90;12.50;;;0.70;99.90;;;;;;6483567;22;20006;-64
2022/12/22 05:22:53;;;;;;;32.35;13.15;;;0.70;99.90;;;;;;6482870;22;20534;-63
2022/12/22 05:25:24;;;;;;;28.17;11.63;;;0.60;99.90;;;;;;6508982;22;19996;-63
2022/12/22 05:27:56;;;;;;;27.92;12.65;;;0.60;99.90;;;;;;6482967;22;19999;-61
2022/12/22 05:30:30;;;;;;;30.80;13.35;;;0.60;99.90;;;;;;6483387;22;20500;-61
2022/12/22 05:33:01;;;;;;;;;;;0.60;99.90;;;;;;6510253;22;20006;-65
2022/12/22 05:35:33;;;;;;;28.85;11.20;;;0.60;99.90;;;;;;6458174;22;20381;-64
2022/12/22 05:38:08;;;;;;;30.20;12.02;;;0.70;99.90;;;;;;6457521;22;20006;-64
2022/12/22 05:40:45;;;;;;;31.70;13.02;;;0.60;99.90;;;;;;6481997;22;20462;-65
2022/12/22 05:43:18;;;;;;;28.45;13.52;;;0.50;99.90;;;;;;6518465;22;20002;-66
2022/12/22 05:45:57;;;;;;;28.00;13.07;;;0.50;99.90;;;;;;6484858;22;20051;-64
2022/12/22 05:48:28;;;;;;;24.27;11.38;;;0.50;99.90;;;;;;6483196;22;20233;-64
2022/12/22 05:51:02;;;;;;;28.92;12.48;;;0.40;99.90;;;;;;6457750;22;20018;-63
2022/12/22 05:53:34;;;;;;;31.77;11.60;;;0.40;99.90;;;;;;6486529;22;20047;-64
2022/12/22 05:56:08;;;;;;;33.63;13.30;;;0.40;99.90;;;;;;6482256;22;20051;-62
2022/12/22 05:58:42;;;;;;;35.95;14.35;;;0.40;99.90;;;;;;6508411;22;20010;-62
2022/12/22 06:01:39;;;;;;;29.98;13.02;;;0.50;99.90;;;;;;6510425;22;20003;-64
2022/12/22 06:04:55;;;;;;;35.53;14.55;;;0.70;99.90;;;;;;6459546;22;20071;-67
2022/12/22 06:07:39;;;;;;;36.85;13.07;;;0.60;99.90;;;;;;6458916;22;20063;-65
2022/12/22 06:10:12;;;;;;;28.88;11.80;;;0.60;99.90;;;;;;6485081;22;20058;-64
2022/12/22 06:12:47;;;;;;;35.22;14.63;;;0.60;99.90;;;;;;6483648;22;20001;-63
2022/12/22 06:15:24;;;;;;;30.33;12.30;;;0.60;99.90;;;;;;6457598;22;20326;-63
2022/12/22 06:17:55;;;;;;;28.75;14.65;;;0.40;99.90;;;;;;6484810;22;20332;-62
2022/12/22 06:20:27;;;;;;;28.35;12.93;;;0.30;99.90;;;;;;6457296;22;19999;-63
2022/12/22 06:23:03;;;;;;;38.97;15.48;;;0.30;99.90;;;;;;6472859;22;20327;-61
2022/12/22 06:25:34;;;;;;;31.65;14.90;;;0.30;99.90;;;;;;6457586;22;20062;-62
2022/12/22 06:28:05;;;;;;;33.38;13.57;;;0.40;99.90;;;;;;6456740;22;19996;-62
2022/12/22 06:30:39;;;;;;;29.25;12.98;;;0.40;99.90;;;;;;6456827;22;20058;-62
2022/12/22 06:33:10;;;;;;;34.97;14.43;;;0.40;99.90;;;;;;6457060;22;20003;-62
2022/12/22 06:35:44;;;;;;;29.15;12.95;;;0.50;99.90;;;;;;6484984;22;20300;-63
2022/12/22 06:38:18;;;;;;;29.30;14.48;;;0.40;99.90;;;;;;6457245;22;20003;-63
2022/12/22 06:40:51;;;;;;;27.83;14.30;;;0.30;99.90;;;;;;6482165;22;20364;-60
2022/12/22 06:43:27;;;;;;;28.13;13.43;;;0.30;99.90;;;;;;6453604;22;20583;-65
2022/12/22 06:45:58;;;;;;;29.17;13.05;;;0.30;99.90;;;;;;6482339;22;20058;-64
2022/12/22 06:48:29;;;;;;;34.13;14.38;;;0.20;99.90;;;;;;6482386;22;20231;-62
2022/12/22 06:51:03;;;;;;;32.88;14.10;;;0.20;99.90;;;;;;6456752;22;20000;-64
2022/12/22 06:53:35;;;;;;;30.65;13.45;;;0.20;99.90;;;;;;6431814;22;20364;-64
2022/12/22 06:56:07;;;;;;;35.63;14.20;;;0.20;99.90;;;;;;6474504;22;20003;-62
2022/12/22 06:58:38;;;;;;;29.65;13.70;;;0.30;99.90;;;;;;6454865;22;20360;-62
2022/12/22 07:01:09;;;;;;;36.63;14.65;;;0.40;99.90;;;;;;6481038;22;20010;-61
2022/12/22 07:03:43;;;;;;;31.27;13.07;;;0.40;99.90;;;;;;6484516;22;20039;-65
2022/12/22 07:06:22;;;;;;;38.45;14.20;;;0.40;99.90;;;;;;6466546;22;20018;-62
2022/12/22 07:09:23;;;;;;;41.75;15.38;;;0.40;99.90;;;;;;6458498;22;20294;-61
2022/12/22 07:12:00;;;;;;;27.67;12.43;;;0.20;99.90;;;;;;6481831;22;19998;-64
2022/12/22 07:14:37;;;;;;;30.80;14.45;;;0.30;99.90;;;;;;6481270;22;20251;-63
2022/12/22 07:17:08;;;;;;;34.92;13.90;;;0.30;99.90;;;;;;6455328;22;20003;-63
2022/12/22 07:19:42;;;;;;;29.13;12.93;;;0.30;99.90;;;;;;6430208;22;20000;-63
2022/12/22 07:22:13;;;;;;;;;;;0.20;99.90;;;;;;6456169;22;20004;-63
2022/12/22 07:24:47;;;;;;;29.13;12.32;;;0.20;99.90;;;;;;6484730;22;20143;-62
2022/12/22 07:27:18;;;;;;;31.17;13.10;;;0.20;99.90;;;;;;6482304;22;20240;-62
2022/12/22 07:29:51;;;;;;;27.92;11.43;;;0.20;99.90;;;;;;6482309;22;19994;-62
2022/12/22 07:32:23;;;;;;;24.05;13.25;;;0.10;99.90;;;;;;6480689;22;19995;-62
2022/12/22 07:34:57;;;;;;;32.85;12.57;;;0.10;99.90;;;;;;6430539;22;20019;-64
2022/12/22 07:37:30;;;;;;;37.97;12.67;;;0.20;99.90;;;;;;6507953;22;19992;-63
2022/12/22 07:40:01;;;;;;;29.77;13.23;;;0.20;99.90;;;;;;6456410;22;20576;-64
2022/12/22 07:42:44;;;;;;;21.25;11.07;;;0.20;99.90;;;;;;6483659;22;20046;-63
2022/12/22 07:45:21;;;;;;;27.85;12.20;;;0.20;99.90;;;;;;6451799;22;20008;-63
2022/12/22 07:47:58;;;;;;;21.02;11.48;;;0.20;99.90;;;;;;6506998;22;20011;-62
2022/12/22 07:50:32;;;;;;;27.15;11.20;;;0.10;99.90;;;;;;6477900;22;20006;-63
2022/12/22 07:53:04;;;;;;;26.60;12.65;;;0.10;99.90;;;;;;6507725;22;20035;-63
2022/12/22 07:55:36;;;;;;;24.52;12.25;;;0.10;99.90;;;;;;6453828;22;19996;-64
2022/12/22 07:58:11;;;;;;;25.95;13.52;;;0.20;99.90;;;;;;6478704;22;20296;-61
2022/12/22 08:00:46;;;;;;;24.70;11.60;;;0.30;99.90;;;;;;6481870;22;20242;-63
2022/12/22 08:03:20;;;;;;;;;;;0.40;99.90;;;;;;6454957;22;20184;-63
2022/12/22 08:05:51;;;;;;;29.65;11.90;;;0.30;99.90;;;;;;6470261;22;20119;-64
2022/12/22 08:08:23;;;;;;;23.58;11.40;;;0.40;99.90;;;;;;6485262;22;20079;-62
2022/12/22 08:10:54;;;;;;;25.42;12.73;;;0.30;99.90;;;;;;6451975;22;20050;-62
2022/12/22 08:13:26;;;;;;;23.38;11.30;;;0.50;99.90;;;;;;6480402;22;19988;-62
2022/12/22 08:16:05;;;;;;;30.35;14.13;;;0.60;99.90;;;;;;6478645;22;20059;-62
2022/12/22 08:18:36;;;;;;;31.00;12.30;;;0.60;99.90;;;;;;6479268;22;20000;-62
2022/12/22 08:21:10;;;;;;;26.38;12.10;;;0.60;99.90;;;;;;6479432;22;20055;-63
2022/12/22 08:23:44;;;;;;;28.13;12.50;;;0.70;99.90;;;;;;6480903;22;20063;-62
2022/12/22 08:26:20;;;;;;;26.65;11.30;;;0.80;99.90;;;;;;6479891;22;20025;-63
2022/12/22 08:29:21;;;;;;;26.83;12.40;;;1.00;99.90;;;;;;6482219;22;19988;-62
2022/12/22 08:31:54;;;;;;;27.15;12.75;;;1.00;99.90;;;;;;6480411;22;20011;-64
2022/12/22 08:34:25;;;;;;;34.22;13.45;;;1.30;99.90;;;;;;6480871;22;19992;-63
2022/12/22 08:37:01;;;;;;;19.10;10.20;;;1.40;99.90;;;;;;6455683;22;20066;-63
2022/12/22 08:39:36;;;;;;;25.30;11.23;;;1.40;99.90;;;;;;6481987;22;20002;-63
2022/12/22 08:42:11;;;;;;;24.27;11.10;;;1.50;99.90;;;;;;6482963;22;20063;-63
2022/12/22 08:44:51;;;;;;;20.50;10.52;;;1.60;99.90;;;;;;6482015;22;20334;-63
2022/12/22 08:47:25;;;;;;;25.48;11.75;;;1.50;99.90;;;;;;6483380;22;20090;-63
2022/12/22 08:49:57;;;;;;;20.23;9.75;;;1.40;99.90;;;;;;6482778;22;20339;-62
2022/12/22 08:52:30;;;;;;;19.05;9.98;;;1.50;99.90;;;;;;6483558;22;20007;-63
2022/12/22 08:55:02;;;;;;;15.77;8.80;;;1.50;99.90;;;;;;6482519;22;20227;-63
2022/12/22 08:57:33;;;;;;;20.20;9.95;;;1.50;99.90;;;;;;6482487;22;20059;-63
2022/12/22 09:00:07;;;;;;;24.38;12.52;;;1.60;99.90;;;;;;6494213;22;20332;-63
2022/12/22 09:02:38;;;;;;;25.38;12.13;;;1.50;99.90;;;;;;6505641;22;19998;-63
2022/12/22 09:05:09;;;;;;;21.80;10.90;;;1.40;99.90;;;;;;6470291;22;20003;-62
2022/12/22 09:07:45;;;;;;;28.30;11.05;;;1.40;99.90;;;;;;6495891;22;20396;-63
2022/12/22 09:10:20;;;;;;;22.10;10.93;;;1.50;99.90;;;;;;6483764;22;20051;-63
2022/12/22 09:12:51;;;;;;;24.25;11.05;;;1.60;99.90;;;;;;6484252;22;20003;-62
2022/12/22 09:15:31;;;;;;;24.60;12.07;;;1.70;99.90;;;;;;6507532;22;20391;-62
2022/12/22 09:18:07;;;;;;;25.27;10.85;;;1.80;99.90;;;;;;6480625;22;19999;-62
2022/12/22 09:20:38;;;;;;;26.15;11.23;;;1.80;99.90;;;;;;6480611;22;20356;-63
2022/12/22 09:23:12;;;;;;;23.55;11.18;;;1.90;99.90;;;;;;6480971;22;20010;-62
2022/12/22 09:25:45;;;;;;;25.45;11.52;;;1.80;99.90;;;;;;6485016;22;19988;-62
2022/12/22 09:28:19;;;;;;;25.08;11.80;;;1.90;99.90;;;;;;6483032;22;19988;-63
2022/12/22 09:30:52;;;;;;;26.08;12.07;;;1.90;99.90;;;;;;6485680;22;20043;-63
2022/12/22 09:33:25;;;;;;;26.00;12.23;;;2.00;99.90;;;;;;6484804;22;20247;-63
2022/12/22 09:35:56;;;;;;;25.05;10.77;;;2.10;99.90;;;;;;6508985;22;20417;-63
2022/12/22 09:38:28;;;;;;;21.70;11.57;;;2.20;99.90;;;;;;6484752;22;20043;-63
2022/12/22 09:41:05;;;;;;;24.65;11.43;;;2.30;99.90;;;;;;6484744;22;20004;-62
2022/12/22 09:43:36;;;;;;;26.98;10.80;;;2.10;99.90;;;;;;6482224;22;20005;-62
2022/12/22 09:46:38;;;;;;;25.45;10.23;;;1.90;99.90;;;;;;6483055;22;19991;-63
2022/12/22 09:49:17;;;;;;;22.20;11.20;;;1.80;99.90;;;;;;6449757;23;20004;-62
2022/12/22 09:51:57;;;;;;;26.15;11.35;;;1.80;99.90;;;;;;6448265;23;20015;-63
2022/12/22 09:54:31;;;;;;;24.63;11.90;;;1.80;99.90;;;;;;6449404;23;20479;-63
2022/12/22 09:57:05;;;;;;;25.55;11.30;;;1.80;99.90;;;;;;6448948;22;20075;-62
2022/12/22 09:59:36;;;;;;;24.58;10.95;;;1.90;99.90;;;;;;6399864;23;20551;-62
2022/12/22 10:02:13;;;;;;;26.70;11.63;;;2.00;99.90;;;;;;6449600;23;19992;-62
2022/12/22 10:05:07;;;;;;;31.08;13.02;;;1.90;99.90;;;;;;6410160;22;20551;-62
2022/12/22 10:07:42;;;;;;;32.65;11.98;;;1.50;99.90;;;;;;6431443;23;19992;-63
2022/12/22 10:10:26;;;;;;;33.97;13.93;;;1.60;99.90;;;;;;6449501;23;20007;-62
2022/12/22 10:13:04;;;;;;;29.25;13.95;;;1.60;99.90;;;;;;6449359;23;20008;-63
2022/12/22 10:15:40;;;;;;;29.92;12.75;;;1.60;99.90;;;;;;6398961;23;20054;-63
2022/12/22 10:18:23;;;;;;;35.53;12.18;;;1.30;99.90;;;;;;6424708;23;20018;-62
2022/12/22 10:21:14;;;;;;;33.33;13.82;;;1.30;99.90;;;;;;6448675;23;20006;-64
2022/12/22 10:23:49;;;;;;;27.50;12.02;;;1.40;99.90;;;;;;6449791;23;20296;-64
2022/12/22 10:26:32;;;;;;;23.30;9.57;;;1.50;99.90;;;;;;6470291;22;20423;-63
2022/12/22 10:29:19;;;;;;;26.85;11.80;;;1.60;99.90;;;;;;6507675;22;20006;-63
2022/12/22 10:32:03;;;;;;;29.45;12.98;;;1.50;99.90;;;;;;6482011;22;20007;-62
2022/12/22 10:34:34;;;;;;;29.48;11.68;;;1.40;99.90;;;;;;6456562;22;20230;-64
2022/12/22 10:37:08;;;;;;;29.77;11.90;;;1.40;99.90;;;;;;6482385;22;20000;-63
2022/12/22 10:39:50;;;;;;;28.00;11.48;;;1.40;99.90;;;;;;6482072;22;20228;-62
2022/12/22 10:42:22;;;;;;;24.35;11.38;;;1.30;99.90;;;;;;6483583;22;20067;-63
2022/12/22 10:44:55;;;;;;;33.47;12.20;;;1.30;99.90;;;;;;6481704;22;20059;-61
2022/12/22 10:47:37;;;;;;;27.50;11.57;;;1.30;99.90;;;;;;6483189;22;20191;-63
2022/12/22 10:50:08;;;;;;;27.58;12.38;;;1.40;99.90;;;;;;6480585;22;20056;-64
2022/12/22 10:52:58;;;;;;;34.53;12.35;;;1.50;99.90;;;;;;6518551;22;20000;-64
2022/12/22 10:55:34;;;;;;;39.67;12.85;;;1.70;99.90;;;;;;6507013;22;20191;-64
2022/12/22 10:58:15;;;;;;;28.33;13.00;;;1.90;99.90;;;;;;6494711;22;20331;-65
2022/12/22 11:01:03;;;;;;;24.95;11.48;;;2.00;99.90;;;;;;6484799;22;20051;-66
2022/12/22 11:03:37;;;;;;;23.10;11.85;;;2.10;99.90;;;;;;6481740;22;20014;-66
2022/12/22 11:06:12;;;;;;;27.42;11.73;;;2.10;99.90;;;;;;6490365;22;20015;-64
2022/12/22 11:08:43;;;;;;;27.70;12.38;;;2.10;99.90;;;;;;6508573;22;19992;-64
2022/12/22 11:11:36;;;;;;;34.35;12.38;;;1.90;99.90;;;;;;6484144;22;20474;-63
2022/12/22 11:14:46;;;;;;;29.65;13.63;;;1.90;99.90;;;;;;6455939;22;20063;-64
2022/12/22 11:17:27;;;;;;;33.10;14.63;;;1.90;99.90;;;;;;6481459;22;20287;-65
2022/12/22 11:20:01;;;;;;;28.15;13.30;;;1.90;99.90;;;;;;6482586;22;19988;-64
2022/12/22 11:22:38;;;;;;;30.13;11.98;;;1.90;99.90;;;;;;6483055;22;20006;-64
2022/12/22 11:25:31;;;;;;;33.13;12.68;;;1.80;99.90;;;;;;6485129;22;20055;-63
2022/12/22 11:28:17;;;;;;;33.67;13.02;;;1.70;99.90;;;;;;6480708;22;20059;-64
2022/12/22 11:30:54;;;;;;;29.95;13.82;;;1.60;99.90;;;;;;6518951;22;19992;-64
2022/12/22 11:34:00;;;;;;;31.65;14.07;;;1.60;99.90;;;;;;6483738;22;19996;-63
2022/12/22 11:36:38;;;;;;;36.55;13.02;;;1.70;99.90;;;;;;6481849;22;20052;-63
2022/12/22 11:39:31;;;;;;;37.38;15.10;;;1.70;99.90;;;;;;6482768;22;19998;-64
2022/12/22 11:42:20;;;;;;;43.20;14.82;;;1.70;99.90;;;;;;6481405;22;20316;-65
2022/12/22 11:45:05;;;;;;;36.33;16.15;;;1.80;99.90;;;;;;6481192;22;20058;-65
2022/12/22 11:47:38;;;;;;;35.83;15.55;;;1.80;99.90;;;;;;6508982;22;19988;-63
2022/12/22 11:50:28;;;;;;;40.58;16.73;;;1.70;99.90;;;;;;6455486;22;20358;-64
2022/12/22 11:53:35;;;;;;;40.03;18.48;;;1.80;99.90;;;;;;6482886;22;20007;-64
2022/12/22 11:56:24;;;;;;;33.03;14.70;;;1.80;99.90;;;;;;6484070;22;20051;-64
2022/12/22 11:59:25;;;;;;;39.28;15.60;;;1.90;99.90;;;;;;6482286;22;20268;-64
2022/12/22 12:02:21;;;;;;;35.30;13.57;;;2.00;99.90;;;;;;6482723;22;19998;-64
2022/12/22 12:05:18;;;;;;;35.60;15.07;;;2.00;99.90;;;;;;6471317;22;20172;-63
2022/12/22 12:07:49;;;;;;;33.97;15.25;;;1.90;99.90;;;;;;6493771;22;20002;-64
2022/12/22 12:10:25;;;;;;;31.40;15.63;;;2.00;99.90;;;;;;6481449;22;20052;-64
2022/12/22 12:13:15;;;;;;;37.28;15.73;;;2.10;99.90;;;;;;6481781;22;19999;-63
2022/12/22 12:15:52;;;;;;;39.67;17.73;;;2.20;99.90;;;;;;6482515;22;19998;-65
2022/12/22 12:18:39;;;;;;;34.28;15.18;;;2.20;99.90;;;;;;6479481;22;20051;-65
2022/12/22 12:21:26;;;;;;;30.08;14.77;;;2.10;99.90;;;;;;6482154;22;20243;-65
2022/12/22 12:24:12;;;;;;;31.25;16.20;;;1.90;99.90;;;;;;6482316;22;20010;-65
2022/12/22 12:27:18;;;;;;;47.25;18.90;;;1.80;99.90;;;;;;6480068;22;19992;-65
2022/12/22 12:30:05;;;;;;;43.33;17.63;;;1.70;99.90;;;;;;6467196;22;19992;-65
2022/12/22 12:32:44;;;;;;;47.35;16.90;;;1.60;99.90;;;;;;6480227;22;20544;-64
2022/12/22 12:35:45;;;;;;;45.97;17.27;;;1.60;99.90;;;;;;6483046;22;20347;-64
2022/12/22 12:38:46;;;;;;;45.92;17.33;;;1.60;99.90;;;;;;6482525;22;20058;-65
2022/12/22 12:41:58;;;;;;;43.67;15.77;;;1.50;99.90;;;;;;6480994;22;19995;-65
2022/12/22 12:44:34;;;;;;;41.55;16.42;;;1.60;99.90;;;;;;6483358;22;20006;-64
2022/12/22 12:47:25;;;;;;;42.42;17.90;;;1.70;99.90;;;;;;6482756;22;19992;-64
2022/12/22 12:50:03;;;;;;;41.72;16.38;;;1.70;99.90;;;;;;6482210;22;19988;-65
2022/12/22 12:52:37;;;;;;;60.45;18.92;;;1.70;99.90;;;;;;6506642;22;20014;-65
2022/12/22 12:55:31;;;;;;;41.80;17.17;;;1.60;99.90;;;;;;6482496;22;20047;-65
2022/12/22 12:58:03;;;;;;;37.67;15.60;;;1.60;99.90;;;;;;6481836;22;20059;-65
2022/12/22 13:00:35;;;;;;;50.95;17.35;;;1.70;99.90;;;;;;6482022;22;20000;-65
2022/12/22 13:03:31;;;;;;;42.90;19.30;;;1.90;99.90;;;;;;6482427;22;20029;-65
2022/12/22 13:06:08;;;;;;;53.25;18.88;;;2.40;99.90;;;;;;6498458;22;20510;-65
2022/12/22 13:09:23;;;;;;;54.78;20.83;;;3.70;99.90;;;;;;6482352;22;20046;-65
2022/12/22 13:11:55;;;;;;;58.10;22.80;;;5.00;99.90;;;;;;6481470;22;19998;-64
2022/12/22 13:14:57;;;;;;;37.45;16.17;;;5.80;99.90;;;;;;6481733;22;20324;-64
2022/12/22 13:17:48;;;;;;;35.60;15.20;;;6.90;99.90;;;;;;6481568;22;19994;-65
2022/12/22 13:20:36;;;;;;;36.90;15.15;;;7.70;99.90;;;;;;6484332;22;20051;-65
2022/12/22 13:23:16;;;;;;;31.10;14.07;;;7.20;99.90;;;;;;6484977;22;20200;-65
2022/12/22 13:25:59;;;;;;;32.22;14.98;;;6.80;99.90;;;;;;6482234;22;20063;-65
2022/12/22 13:28:33;;;;;;;34.58;14.75;;;6.00;99.90;;;;;;6508309;22;19994;-65
2022/12/22 13:31:52;;;;;;;42.53;15.85;;;5.30;99.90;;;;;;6483627;22;20192;-66
2022/12/22 13:34:48;;;;;;;31.58;14.07;;;4.80;99.90;;;;;;6476357;22;20270;-64
2022/12/22 13:37:22;;;;;;;33.58;15.45;;;4.40;99.90;;;;;;6455891;22;20180;-65
2022/12/22 13:40:08;;;;;;;35.13;16.13;;;4.30;99.90;;;;;;6508268;22;20269;-65
2022/12/22 13:43:10;;;;;;;35.17;14.88;;;4.30;99.90;;;;;;6482162;22;19996;-65
2022/12/22 13:45:44;;;;;;;38.05;16.00;;;4.40;99.90;;;;;;6480388;22;20010;-66
2022/12/22 13:48:44;;;;;;;39.05;17.67;;;4.30;99.90;;;;;;6483930;22;20063;-64
2022/12/22 13:51:31;;;;;;;44.80;15.63;;;4.20;99.90;;;;;;6483164;22;20152;-64
2022/12/22 13:54:13;;;;;;;33.67;15.82;;;3.80;99.90;;;;;;6485958;22;20298;-65
2022/12/22 13:56:55;;;;;;;32.38;14.52;;;3.60;99.90;;;;;;6482239;22;20276;-65
2022/12/22 13:59:45;;;;;;;29.77;15.35;;;3.20;99.90;;;;;;6484358;22;20267;-65
2022/12/22 14:02:18;;;;;;;49.88;18.52;;;3.00;99.90;;;;;;6482087;22;20006;-64
2022/12/22 14:05:10;;;;;;;49.55;18.77;;;2.90;99.90;;;;;;6472870;22;20078;-65
2022/12/22 14:07:57;;;;;;;36.47;17.30;;;2.90;99.90;;;;;;6496167;22;20043;-65
2022/12/22 14:10:38;;;;;;;38.83;18.02;;;2.90;99.90;;;;;;6484907;22;20042;-65
2022/12/22 14:13:19;;;;;;;38.80;16.65;;;2.80;99.90;;;;;;6482884;22;20478;-64
2022/12/22 14:16:01;;;;;;;40.22;16.17;;;2.70;99.90;;;;;;6482623;22;20359;-64
2022/12/22 14:18:33;;;;;;;36.72;17.67;;;2.60;99.90;;;;;;6510027;22;20333;-66
2022/12/22 14:21:06;;;;;;;40.92;17.10;;;2.60;99.90;;;;;;6484867;22;20046;-65
2022/12/22 14:23:40;;;;;;;38.55;18.38;;;2.50;99.90;;;;;;6486031;22;20079;-65
2022/12/22 14:26:18;;;;;;;41.42;18.70;;;2.40;99.90;;;;;;6509640;22;20000;-65
2022/12/22 14:28:54;;;;;;;36.42;17.13;;;2.50;99.90;;;;;;6482745;22;20055;-65
2022/12/22 14:31:25;;;;;;;44.78;17.77;;;2.40;99.90;;;;;;6484950;22;20055;-64
2022/12/22 14:34:04;;;;;;;36.45;16.95;;;2.50;99.90;;;;;;6483229;22;20000;-65
2022/12/22 14:36:37;;;;;;;49.22;18.25;;;2.60;99.90;;;;;;6485434;22;20047;-65
2022/12/22 14:39:09;;;;;;;43.90;18.07;;;2.70;99.90;;;;;;6482330;22;20270;-67
2022/12/22 14:41:51;;;;;;;40.28;17.88;;;2.70;99.90;;;;;;6483662;22;20062;-66
2022/12/22 14:44:28;;;;;;;41.30;17.35;;;2.80;99.90;;;;;;6480962;22;20022;-65
2022/12/22 14:47:13;;;;;;;36.13;18.55;;;2.90;99.90;;;;;;6508961;22;20191;-65
2022/12/22 14:49:51;;;;;;;42.33;18.55;;;3.00;99.90;;;;;;6484462;22;20050;-64
2022/12/22 14:52:45;;;;;;;38.72;17.58;;;3.00;99.90;;;;;;6483002;22;20231;-66
2022/12/22 14:55:48;;;;;;;47.50;21.33;;;2.90;99.90;;;;;;6481491;22;20242;-64
2022/12/22 14:58:28;;;;;;;43.40;19.50;;;2.80;99.90;;;;;;6484375;22;20059;-64
2022/12/22 15:01:16;;;;;;;46.35;19.77;;;2.70;99.90;;;;;;6483717;22;20237;-64
2022/12/22 15:04:25;;;;;;;42.17;21.05;;;2.70;99.90;;;;;;6484893;22;20312;-66
2022/12/22 15:07:18;;;;;;;39.47;18.17;;;2.50;99.90;;;;;;6441825;22;20012;-67
2022/12/22 15:09:50;;;;;;;36.85;18.65;;;2.40;99.90;;;;;;6484865;22;20051;-65
2022/12/22 15:12:21;;;;;;;41.80;18.27;;;2.30;99.90;;;;;;6485244;22;20319;-65
2022/12/22 15:14:52;;;;;;;37.38;17.55;;;2.20;99.90;;;;;;6456158;22;20051;-65
2022/12/22 15:17:24;;;;;;;37.58;17.50;;;2.20;99.90;;;;;;6483762;22;20237;-64
2022/12/22 15:19:59;;;;;;;38.35;17.05;;;2.20;99.90;;;;;;6480483;22;19991;-65
2022/12/22 15:22:30;;;;;;;;;;;2.30;99.90;;;;;;6484654;22;20276;-65
2022/12/22 15:25:01;;;;;;;35.97;16.70;;;2.20;99.90;;;;;;6484637;22;19899;-65
2022/12/22 15:27:32;;;;;;;41.15;18.98;;;2.30;99.90;;;;;;6482552;22;19987;-66
2022/12/22 15:30:04;;;;;;;40.78;19.05;;;2.40;99.90;;;;;;6506462;22;20000;-66
2022/12/22 15:32:38;;;;;;;41.40;18.20;;;2.40;99.90;;;;;;6483356;22;20008;-66
2022/12/22 15:35:13;;;;;;;;;;;2.50;99.90;;;;;;6483816;22;20010;-65
2022/12/22 15:37:45;;;;;;;46.38;20.77;;;2.50;99.90;;;;;;6481747;22;19954;-65
2022/12/22 15:40:21;;;;;;;37.25;17.83;;;2.40;99.90;;;;;;6481478;22;20062;-65
2022/12/22 15:42:52;;;;;;;41.15;18.48;;;2.40;99.90;;;;;;6507444;22;20003;-65
2022/12/22 15:45:23;;;;;;;48.97;19.05;;;2.40;99.90;;;;;;6480413;22;20187;-65
2022/12/22 15:47:59;;;;;;;39.60;17.48;;;2.30;99.90;;;;;;6492512;22;20021;-65
2022/12/22 15:50:34;;;;;;;39.38;16.25;;;2.30;99.90;;;;;;6484054;22;20339;-66
2022/12/22 15:53:10;;;;;;;39.47;16.10;;;2.20;99.90;;;;;;6483310;22;20017;-65
2022/12/22 15:55:44;;;;;;;32.13;17.65;;;2.40;99.90;;;;;;6480602;22;20010;-65
2022/12/22 15:58:20;;;;;;;;;;;2.40;99.90;;;;;;6482974;22;20055;-65
2022/12/22 16:00:51;;;;;;;;;;;2.40;99.90;;;;;;6484292;22;19970;-65
2022/12/22 16:03:27;;;;;;;36.97;16.00;;;2.30;99.90;;;;;;6482732;22;19926;-65
2022/12/22 16:06:05;;;;;;;41.47;18.77;;;2.30;99.90;;;;;;6471649;22;20014;-65
2022/12/22 16:08:40;;;;;;;41.17;18.73;;;2.30;99.90;;;;;;6485218;22;20263;-65
2022/12/22 16:11:12;;;;;;;36.35;19.05;;;2.30;99.90;;;;;;6481607;22;19995;-66
2022/12/22 16:13:47;;;;;;;40.38;19.90;;;2.30;99.90;;;;;;6483661;22;19995;-66
2022/12/22 16:16:21;;;;;;;37.95;18.75;;;2.30;99.90;;;;;;6482292;22;19998;-66
2022/12/22 16:18:54;;;;;;;42.45;21.30;;;2.20;99.90;;;;;;6483719;22;20047;-66
2022/12/22 16:21:30;;;;;;;44.77;18.73;;;2.10;99.90;;;;;;6481922;22;20002;-66
2022/12/22 16:24:02;;;;;;;49.45;20.63;;;2.10;99.90;;;;;;6480239;22;20029;-66
2022/12/22 16:26:36;;;;;;;43.97;19.35;;;2.10;99.90;;;;;;6483976;22;20043;-66
2022/12/22 16:29:14;;;;;;;45.90;20.52;;;2.00;99.90;;;;;;6480325;22;20164;-66
2022/12/22 16:31:45;;;;;;;45.03;21.45;;;2.00;99.90;;;;;;6506788;22;19994;-66
2022/12/22 16:34:16;;;;;;;45.80;21.80;;;2.00;99.90;;;;;;6482819;22;20310;-66
2022/12/22 16:36:48;;;;;;;41.58;20.05;;;1.90;99.90;;;;;;6484541;22;20224;-66
2022/12/22 16:39:21;;;;;;;44.47;21.27;;;1.90;99.90;;;;;;6457815;22;20001;-66
2022/12/22 16:41:55;;;;;;;49.33;20.47;;;1.90;99.90;;;;;;6482652;22;20283;-66
2022/12/22 16:44:29;;;;;;;45.20;21.55;;;1.90;99.90;;;;;;6521349;22;20209;-68
2022/12/22 16:47:02;;;;;;;;;;;1.90;99.90;;;;;;6510401;22;20010;-66
2022/12/22 16:49:33;;;;;;;46.88;22.08;;;1.90;99.90;;;;;;6485657;22;20245;-68
2022/12/22 16:52:04;;;;;;;51.17;21.00;;;1.90;99.90;;;;;;6485282;22;20042;-66
2022/12/22 16:54:35;;;;;;;46.55;20.80;;;1.80;99.90;;;;;;6482663;22;20008;-66
2022/12/22 16:57:07;;;;;;;49.25;22.75;;;1.80;99.90;;;;;;6485835;22;20115;-66
2022/12/22 16:59:43;;;;;;;45.10;23.42;;;1.90;99.90;;;;;;6484295;22;20236;-66
2022/12/22 17:02:27;;;;;;;54.42;23.73;;;1.90;99.90;;;;;;6485541;22;20055;-66
2022/12/22 17:05:00;;;;;;;66.57;25.85;;;1.90;99.90;;;;;;6479679;22;20026;-66
2022/12/22 17:07:32;;;;;;;45.85;23.33;;;1.90;99.90;;;;;;6483282;22;20010;-67
2022/12/22 17:10:06;;;;;;;58.78;25.67;;;1.80;99.90;;;;;;6482841;22;20059;-67